LIMF METAR and TAF | Updated Today

LIMF METAR

Turin Airport

Observation time: 10 min. ago

LIMF 241750Z 01011KT 340V040 9999 3000E -SHRA VCTS FEW030CB SCT050 15/15 Q1005 RETSGR RETSRA

Need help? Read our tutorial on how to read METARs or read the parsed version below.

Turin Airport (LIMF) METAR

  • Weather conditions on Tue, 24 May 2022 17:50:00 +0000 (10 min. ago):
  • Present conditions: Light showers of rain; in the vicinity, thunderstorms
  • Clouds: A few at 914 meters, cumulonimbus; scattered at 1524 meters
  • Visibility: Greater than 10 km
  • Wind: 10 degrees at 11 knots
  • Temperature: 15 celsius
  • Dew point: 15 celsius
  • Pressure: 1005 millibars
  • Remarks: None


Useful to know...

LIMF TAF

Turin Airport

TAF LIMF 241700Z 2418/2518 02008KT 9999 SCT040 TEMPO 2418/2424 3000 TSRA TEMPO 2500/2512 4000 SHRA
Observation time: 60 min. ago
Need help? Read our tutorial on how to read TAFs or read the parsed version below.

Parsed version of TAF for Turin Airport (LIMF)

  • From 24 May at 18:00 UTC, to day 25 of the month at 18:00 UTC
  • Clouds: Scattered at 1219 meters
  • Visibility: Greater than 10 km
  • Wind: 20 degrees at 8
  • Expected to arise temporarily, from 24 May at 18:00 UTC, to day 24 of the month at 24:00 UTC
  • Visibility: 3000 meters
  • Other: Thunderstorms rain
  • Expected to arise temporarily, from 25 May at 00:00 UTC, to day 25 of the month at 12:00 UTC
  • Visibility: 4000 meters
  • Other: Showers of rain